Gabbs, Nevada
Current Conditions -  °F | °C
As of 11:56 PM on Thursday 23 Oct 2014 (Local Time) from KNFL Reporting Station
Clear Clear  
Wind Chill: 37°   Ceiling: Unl
Heat Index: 40°   Visibility: 10mi
Dew Point: 27°   Wind: 5mph
Humidity: 60%   Direction: 160°SSE
Pressure: 30.07"   Gusts: NA
Location:  38.87°N, 117.92°W
Report Text: KNFL 240656Z AUTO 16004KT 10SM CLR 04/M03 A3007 RMK AO2 SLP151 T00441028
Loading
Personal Weather Stations






























Interactive Weather Map
Tropical Storm Tracking
New forecast layout! Learn more

10-Day Weather Forecast

Advertisements
Track Severe Weather on mobile